sensor_id;sensor_type;location;lat;lon;timestamp;pressure;altitude;pressure_sealevel;temperature;humidity
74921;BME280;63483;47.384;8.860;2023-03-31T00:01:11;94185.41;;;8.53;45.26
74921;BME280;63483;47.384;8.860;2023-03-31T00:03:37;94168.75;;;8.54;45.07
74921;BME280;63483;47.384;8.860;2023-03-31T00:06:03;94171.72;;;8.51;45.03
74921;BME280;63483;47.384;8.860;2023-03-31T00:08:30;94163.69;;;8.53;44.92
74921;BME280;63483;47.384;8.860;2023-03-31T00:11:00;94166.47;;;8.51;44.86
74921;BME280;63483;47.384;8.860;2023-03-31T00:13:26;94161.28;;;8.51;44.76
74921;BME280;63483;47.384;8.860;2023-03-31T00:16:01;94158.47;;;8.53;45.10
74921;BME280;63483;47.384;8.860;2023-03-31T00:18:27;94150.81;;;8.51;45.13
74921;BME280;63483;47.384;8.860;2023-03-31T00:20:54;94148.69;;;8.40;45.09
74921;BME280;63483;47.384;8.860;2023-03-31T00:23:22;94141.38;;;8.35;45.33
74921;BME280;63483;47.384;8.860;2023-03-31T00:25:52;94137.75;;;8.36;45.50
74921;BME280;63483;47.384;8.860;2023-03-31T00:28:18;94137.59;;;8.38;45.42
74921;BME280;63483;47.384;8.860;2023-03-31T00:30:43;94132.53;;;8.36;45.33
74921;BME280;63483;47.384;8.860;2023-03-31T00:33:08;94130.78;;;8.37;45.66
74921;BME280;63483;47.384;8.860;2023-03-31T00:35:34;94127.81;;;8.40;45.63
74921;BME280;63483;47.384;8.860;2023-03-31T00:38:03;94128.41;;;8.42;45.47
74921;BME280;63483;47.384;8.860;2023-03-31T00:40:30;94129.03;;;8.44;45.43
74921;BME280;63483;47.384;8.860;2023-03-31T00:42:55;94127.44;;;8.43;45.30
74921;BME280;63483;47.384;8.860;2023-03-31T00:45:24;94113.38;;;8.44;45.52
74921;BME280;63483;47.384;8.860;2023-03-31T00:48:02;94116.81;;;8.44;45.59
74921;BME280;63483;47.384;8.860;2023-03-31T00:50:40;94110.78;;;8.44;45.75
74921;BME280;63483;47.384;8.860;2023-03-31T00:53:11;94112.75;;;8.42;45.92
74921;BME280;63483;47.384;8.860;2023-03-31T00:55:41;94111.78;;;8.43;45.75
74921;BME280;63483;47.384;8.860;2023-03-31T00:58:09;94122.84;;;8.45;45.71
74921;BME280;63483;47.384;8.860;2023-03-31T01:00:39;94109.78;;;8.45;45.50
74921;BME280;63483;47.384;8.860;2023-03-31T01:03:06;94108.00;;;8.45;45.74
74921;BME280;63483;47.384;8.860;2023-03-31T01:05:44;94109.78;;;8.45;45.46
74921;BME280;63483;47.384;8.860;2023-03-31T01:08:12;94084.06;;;8.42;45.53
74921;BME280;63483;47.384;8.860;2023-03-31T01:10:51;94077.84;;;8.43;45.79
74921;BME280;63483;47.384;8.860;2023-03-31T01:13:18;94075.97;;;8.37;45.94
74921;BME280;63483;47.384;8.860;2023-03-31T01:15:44;94070.38;;;8.40;45.84
74921;BME280;63483;47.384;8.860;2023-03-31T01:18:10;94063.53;;;8.39;45.92
74921;BME280;63483;47.384;8.860;2023-03-31T01:26:08;94039.31;;;8.45;45.86
74921;BME280;63483;47.384;8.860;2023-03-31T01:37:19;94052.38;;;8.45;45.92
74921;BME280;63483;47.384;8.860;2023-03-31T01:47:57;94052.38;;;8.45;46.35
74921;BME280;63483;47.384;8.860;2023-03-31T01:50:28;94048.78;;;8.46;46.27
74921;BME280;63483;47.384;8.860;2023-03-31T01:53:14;94046.97;;;8.46;46.47
74921;BME280;63483;47.384;8.860;2023-03-31T01:55:46;94035.91;;;8.44;46.49
74921;BME280;63483;47.384;8.860;2023-03-31T01:58:40;94035.09;;;8.44;46.44
74921;BME280;63483;47.384;8.860;2023-03-31T02:01:20;94039.50;;;8.43;46.44
74921;BME280;63483;47.384;8.860;2023-03-31T02:03:56;94037.69;;;8.44;46.57
74921;BME280;63483;47.384;8.860;2023-03-31T02:06:26;94041.13;;;8.44;46.71
74921;BME280;63483;47.384;8.860;2023-03-31T02:08:59;94031.88;;;8.42;46.69
74921;BME280;63483;47.384;8.860;2023-03-31T02:11:28;94037.09;;;8.42;46.75
74921;BME280;63483;47.384;8.860;2023-03-31T02:13:55;94032.22;;;8.39;46.77
74921;BME280;63483;47.384;8.860;2023-03-31T02:16:26;94032.22;;;8.39;46.92
74921;BME280;63483;47.384;8.860;2023-03-31T02:18:57;94022.59;;;8.39;46.93
74921;BME280;63483;47.384;8.860;2023-03-31T02:21:28;94012.16;;;8.39;47.09
74921;BME280;63483;47.384;8.860;2023-03-31T02:23:55;94011.78;;;8.42;47.13
74921;BME280;63483;47.384;8.860;2023-03-31T02:26:28;94007.41;;;8.43;47.05
74921;BME280;63483;47.384;8.860;2023-03-31T02:28:53;94004.78;;;8.43;47.05
74921;BME280;63483;47.384;8.860;2023-03-31T02:31:24;93994.53;;;8.41;47.32
74921;BME280;63483;47.384;8.860;2023-03-31T02:33:51;93987.25;;;8.37;47.45
74921;BME280;63483;47.384;8.860;2023-03-31T02:36:17;93984.66;;;8.37;47.84
74921;BME280;63483;47.384;8.860;2023-03-31T02:38:47;93969.59;;;8.39;48.05
74921;BME280;63483;47.384;8.860;2023-03-31T02:41:15;93966.38;;;8.37;47.75
74921;BME280;63483;47.384;8.860;2023-03-31T02:43:41;93959.72;;;8.34;48.01
74921;BME280;63483;47.384;8.860;2023-03-31T02:46:06;93957.28;;;8.33;48.08
74921;BME280;63483;47.384;8.860;2023-03-31T02:48:35;93951.88;;;8.34;48.32
74921;BME280;63483;47.384;8.860;2023-03-31T02:56:20;93938.75;;;8.27;48.37
74921;BME280;63483;47.384;8.860;2023-03-31T02:59:14;93930.13;;;8.27;48.57
74921;BME280;63483;47.384;8.860;2023-03-31T03:07:25;93906.22;;;8.23;48.29
74921;BME280;63483;47.384;8.860;2023-03-31T03:10:07;93886.31;;;8.22;48.55
74921;BME280;63483;47.384;8.860;2023-03-31T03:12:57;93885.53;;;8.22;48.73
74921;BME280;63483;47.384;8.860;2023-03-31T03:15:34;93879.47;;;8.21;48.92
74921;BME280;63483;47.384;8.860;2023-03-31T03:18:02;93871.84;;;8.20;48.60
74921;BME280;63483;47.384;8.860;2023-03-31T03:20:30;93872.81;;;8.19;48.70
74921;BME280;63483;47.384;8.860;2023-03-31T03:22:58;93865.66;;;8.21;48.73
74921;BME280;63483;47.384;8.860;2023-03-31T03:25:23;93857.81;;;8.21;48.65
74921;BME280;63483;47.384;8.860;2023-03-31T03:27:50;93852.59;;;8.21;48.91
74921;BME280;63483;47.384;8.860;2023-03-31T03:30:17;93856.00;;;8.21;48.91
74921;BME280;63483;47.384;8.860;2023-03-31T03:32:43;93849.34;;;8.19;48.76
74921;BME280;63483;47.384;8.860;2023-03-31T03:35:09;93831.53;;;8.22;48.90
74921;BME280;63483;47.384;8.860;2023-03-31T03:37:35;93803.59;;;8.16;48.35
74921;BME280;63483;47.384;8.860;2023-03-31T03:40:00;93784.81;;;8.27;48.19
74921;BME280;63483;47.384;8.860;2023-03-31T03:42:26;93779.22;;;8.31;47.95
74921;BME280;63483;47.384;8.860;2023-03-31T03:44:51;93776.44;;;8.32;47.79
74921;BME280;63483;47.384;8.860;2023-03-31T03:47:17;93759.13;;;8.24;47.94
74921;BME280;63483;47.384;8.860;2023-03-31T03:49:42;93763.59;;;8.31;48.12
74921;BME280;63483;47.384;8.860;2023-03-31T03:52:07;93762.84;;;8.37;47.87
74921;BME280;63483;47.384;8.860;2023-03-31T03:54:33;93748.41;;;8.41;47.89
74921;BME280;63483;47.384;8.860;2023-03-31T03:56:58;93720.34;;;8.43;47.44
74921;BME280;63483;47.384;8.860;2023-03-31T03:59:23;93705.94;;;8.47;46.87
74921;BME280;63483;47.384;8.860;2023-03-31T04:01:49;93696.31;;;8.54;46.85
74921;BME280;63483;47.384;8.860;2023-03-31T04:04:15;93683.91;;;8.56;47.24
74921;BME280;63483;47.384;8.860;2023-03-31T04:06:40;93668.84;;;8.58;47.06
74921;BME280;63483;47.384;8.860;2023-03-31T04:09:06;93665.00;;;8.54;47.32
74921;BME280;63483;47.384;8.860;2023-03-31T04:11:31;93669.88;;;8.57;46.92
74921;BME280;63483;47.384;8.860;2023-03-31T04:13:56;93667.59;;;8.48;46.90
74921;BME280;63483;47.384;8.860;2023-03-31T04:16:22;93659.44;;;8.57;46.88
74921;BME280;63483;47.384;8.860;2023-03-31T04:18:50;93665.63;;;8.56;46.99
74921;BME280;63483;47.384;8.860;2023-03-31T04:21:17;93651.75;;;8.56;47.06
74921;BME280;63483;47.384;8.860;2023-03-31T04:23:53;93646.13;;;8.52;47.05
74921;BME280;63483;47.384;8.860;2023-03-31T04:26:27;93650.75;;;8.50;47.43
74921;BME280;63483;47.384;8.860;2023-03-31T04:29:04;93643.72;;;8.51;47.39
74921;BME280;63483;47.384;8.860;2023-03-31T04:31:30;93639.28;;;8.51;47.12
74921;BME280;63483;47.384;8.860;2023-03-31T04:33:55;93640.91;;;8.52;46.99
74921;BME280;63483;47.384;8.860;2023-03-31T04:36:26;93643.53;;;8.52;47.04
74921;BME280;63483;47.384;8.860;2023-03-31T04:38:53;93627.56;;;8.34;47.58
74921;BME280;63483;47.384;8.860;2023-03-31T04:41:20;93621.19;;;8.43;47.30
74921;BME280;63483;47.384;8.860;2023-03-31T04:43:45;93613.38;;;8.43;47.77
74921;BME280;63483;47.384;8.860;2023-03-31T04:46:11;93616.56;;;8.45;47.15
74921;BME280;63483;47.384;8.860;2023-03-31T04:48:37;93607.38;;;8.49;46.99
74921;BME280;63483;47.384;8.860;2023-03-31T04:51:03;93606.38;;;8.50;47.18
74921;BME280;63483;47.384;8.860;2023-03-31T04:53:29;93601.16;;;8.50;47.11
74921;BME280;63483;47.384;8.860;2023-03-31T04:55:55;93595.94;;;8.50;47.21
74921;BME280;63483;47.384;8.860;2023-03-31T04:58:20;93587.88;;;8.45;47.74
74921;BME280;63483;47.384;8.860;2023-03-31T05:00:46;93574.03;;;8.44;47.83
74921;BME280;63483;47.384;8.860;2023-03-31T05:03:11;93574.22;;;8.43;47.76
74921;BME280;63483;47.384;8.860;2023-03-31T05:05:36;93563.78;;;8.43;47.70
74921;BME280;63483;47.384;8.860;2023-03-31T05:08:02;93563.75;;;8.36;47.91
74921;BME280;63483;47.384;8.860;2023-03-31T05:10:29;93561.56;;;8.40;47.67
74921;BME280;63483;47.384;8.860;2023-03-31T05:12:55;93545.28;;;8.38;47.36
74921;BME280;63483;47.384;8.860;2023-03-31T05:15:20;93554.50;;;8.34;47.23
74921;BME280;63483;47.384;8.860;2023-03-31T05:17:46;93541.22;;;8.28;45.26
74921;BME280;63483;47.384;8.860;2023-03-31T05:20:11;93541.63;;;8.25;43.40
74921;BME280;63483;47.384;8.860;2023-03-31T05:22:38;93546.44;;;8.28;42.24
74921;BME280;63483;47.384;8.860;2023-03-31T05:25:06;93529.47;;;8.46;42.14
74921;BME280;63483;47.384;8.860;2023-03-31T05:27:32;93520.88;;;8.52;41.05
74921;BME280;63483;47.384;8.860;2023-03-31T05:29:58;93516.88;;;8.56;40.80
74921;BME280;63483;47.384;8.860;2023-03-31T05:32:25;93523.31;;;8.60;40.42
74921;BME280;63483;47.384;8.860;2023-03-31T05:34:50;93526.59;;;8.76;40.16
74921;BME280;63483;47.384;8.860;2023-03-31T05:37:18;93529.06;;;8.84;40.00
74921;BME280;63483;47.384;8.860;2023-03-31T05:39:44;93530.28;;;8.95;39.71
74921;BME280;63483;47.384;8.860;2023-03-31T05:42:10;93537.13;;;9.03;38.69
74921;BME280;63483;47.384;8.860;2023-03-31T05:44:35;93533.72;;;9.09;39.01
74921;BME280;63483;47.384;8.860;2023-03-31T05:47:01;93543.59;;;9.20;39.11
74921;BME280;63483;47.384;8.860;2023-03-31T05:49:26;93550.66;;;9.26;38.76
74921;BME280;63483;47.384;8.860;2023-03-31T05:51:51;93543.22;;;9.30;38.73
74921;BME280;63483;47.384;8.860;2023-03-31T05:54:17;93536.59;;;9.41;38.67
74921;BME280;63483;47.384;8.860;2023-03-31T05:56:42;93553.69;;;9.37;38.65
74921;BME280;63483;47.384;8.860;2023-03-31T05:59:08;93571.00;;;9.51;38.61
74921;BME280;63483;47.384;8.860;2023-03-31T06:01:33;93571.56;;;9.26;36.51
74921;BME280;63483;47.384;8.860;2023-03-31T06:03:58;93555.41;;;8.54;35.79
74921;BME280;63483;47.384;8.860;2023-03-31T06:06:24;93558.03;;;8.19;38.52
74921;BME280;63483;47.384;8.860;2023-03-31T06:08:50;93572.38;;;8.02;39.31
74921;BME280;63483;47.384;8.860;2023-03-31T06:11:18;93586.34;;;7.94;38.86
74921;BME280;63483;47.384;8.860;2023-03-31T06:13:43;93598.84;;;7.55;37.47
74921;BME280;63483;47.384;8.860;2023-03-31T06:16:11;93567.75;;;7.32;38.47
74921;BME280;63483;47.384;8.860;2023-03-31T06:18:37;93570.91;;;7.28;37.96
74921;BME280;63483;47.384;8.860;2023-03-31T06:21:03;93568.41;;;7.19;39.07
74921;BME280;63483;47.384;8.860;2023-03-31T06:23:28;93610.22;;;7.11;39.23
74921;BME280;63483;47.384;8.860;2023-03-31T06:25:59;93583.91;;;7.06;39.33
74921;BME280;63483;47.384;8.860;2023-03-31T06:28:25;93546.94;;;6.96;39.59
74921;BME280;63483;47.384;8.860;2023-03-31T06:30:58;93565.81;;;6.98;40.00
74921;BME280;63483;47.384;8.860;2023-03-31T06:33:24;93578.19;;;6.96;39.81
74921;BME280;63483;47.384;8.860;2023-03-31T06:35:49;93585.22;;;6.80;39.74
74921;BME280;63483;47.384;8.860;2023-03-31T06:38:14;93600.22;;;6.78;39.32
74921;BME280;63483;47.384;8.860;2023-03-31T06:40:41;93566.13;;;6.73;40.80
74921;BME280;63483;47.384;8.860;2023-03-31T06:43:06;93558.09;;;6.90;44.72
74921;BME280;63483;47.384;8.860;2023-03-31T06:45:32;93586.31;;;7.08;45.24
74921;BME280;63483;47.384;8.860;2023-03-31T06:47:57;93591.53;;;7.08;43.33
74921;BME280;63483;47.384;8.860;2023-03-31T06:50:22;93597.78;;;6.92;42.05
74921;BME280;63483;47.384;8.860;2023-03-31T06:52:48;93611.72;;;7.20;45.01
74921;BME280;63483;47.384;8.860;2023-03-31T06:55:16;93582.81;;;7.37;44.18
74921;BME280;63483;47.384;8.860;2023-03-31T06:57:42;93592.13;;;7.25;40.67
74921;BME280;63483;47.384;8.860;2023-03-31T07:00:08;93610.53;;;7.23;41.24
74921;BME280;63483;47.384;8.860;2023-03-31T07:02:33;93625.59;;;7.28;43.62
74921;BME280;63483;47.384;8.860;2023-03-31T07:04:58;93644.22;;;7.25;42.78
74921;BME280;63483;47.384;8.860;2023-03-31T07:07:24;93669.88;;;7.28;43.82
74921;BME280;63483;47.384;8.860;2023-03-31T07:09:49;93661.81;;;7.22;47.06
74921;BME280;63483;47.384;8.860;2023-03-31T07:12:15;93662.38;;;7.03;47.27
74921;BME280;63483;47.384;8.860;2023-03-31T07:14:40;93689.69;;;7.07;47.61
74921;BME280;63483;47.384;8.860;2023-03-31T07:17:05;93754.13;;;7.35;46.38
74921;BME280;63483;47.384;8.860;2023-03-31T07:19:31;93753.97;;;7.21;48.20
74921;BME280;63483;47.384;8.860;2023-03-31T07:21:56;93732.41;;;6.98;50.36
74921;BME280;63483;47.384;8.860;2023-03-31T07:24:21;93716.78;;;7.28;50.23
74921;BME280;63483;47.384;8.860;2023-03-31T07:26:47;93715.44;;;7.53;51.38
74921;BME280;63483;47.384;8.860;2023-03-31T07:29:12;93718.34;;;7.58;51.79
74921;BME280;63483;47.384;8.860;2023-03-31T07:31:38;93709.03;;;7.19;49.27
74921;BME280;63483;47.384;8.860;2023-03-31T07:34:04;93696.47;;;7.38;48.90
74921;BME280;63483;47.384;8.860;2023-03-31T07:36:30;93680.34;;;7.64;47.78
74921;BME280;63483;47.384;8.860;2023-03-31T07:38:55;93677.69;;;7.79;46.99
74921;BME280;63483;47.384;8.860;2023-03-31T07:41:21;93665.38;;;7.95;46.81
74921;BME280;63483;47.384;8.860;2023-03-31T07:43:47;93677.31;;;7.82;46.92
74921;BME280;63483;47.384;8.860;2023-03-31T07:46:23;93674.06;;;7.80;46.45
74921;BME280;63483;47.384;8.860;2023-03-31T07:48:49;93679.56;;;8.14;46.22
74921;BME280;63483;47.384;8.860;2023-03-31T07:51:17;93671.16;;;8.12;46.30
74921;BME280;63483;47.384;8.860;2023-03-31T07:53:44;93664.09;;;8.34;46.50
74921;BME280;63483;47.384;8.860;2023-03-31T07:56:10;93664.53;;;8.44;46.31
74921;BME280;63483;47.384;8.860;2023-03-31T07:58:35;93666.63;;;8.55;45.68
74921;BME280;63483;47.384;8.860;2023-03-31T08:01:00;93647.31;;;8.78;45.79
74921;BME280;63483;47.384;8.860;2023-03-31T08:03:26;93644.75;;;8.85;45.25
74921;BME280;63483;47.384;8.860;2023-03-31T08:05:52;93658.91;;;9.04;45.19
74921;BME280;63483;47.384;8.860;2023-03-31T08:08:19;93659.34;;;9.14;45.04
74921;BME280;63483;47.384;8.860;2023-03-31T08:10:45;93648.25;;;9.12;44.75
74921;BME280;63483;47.384;8.860;2023-03-31T08:13:10;93639.28;;;9.21;45.09
74921;BME280;63483;47.384;8.860;2023-03-31T08:15:36;93624.22;;;9.30;44.39
74921;BME280;63483;47.384;8.860;2023-03-31T08:18:03;93626.25;;;9.35;44.24
74921;BME280;63483;47.384;8.860;2023-03-31T08:20:28;93615.59;;;9.43;44.52
74921;BME280;63483;47.384;8.860;2023-03-31T08:22:53;93621.63;;;9.30;44.33
74921;BME280;63483;47.384;8.860;2023-03-31T08:25:19;93635.28;;;9.39;44.79
74921;BME280;63483;47.384;8.860;2023-03-31T08:27:45;93632.91;;;9.44;44.33
74921;BME280;63483;47.384;8.860;2023-03-31T08:30:13;93622.84;;;9.47;44.09
74921;BME280;63483;47.384;8.860;2023-03-31T08:32:38;93633.09;;;9.49;43.66
74921;BME280;63483;47.384;8.860;2023-03-31T08:35:04;93634.53;;;9.45;44.61
74921;BME280;63483;47.384;8.860;2023-03-31T08:37:30;93627.31;;;9.60;43.37
74921;BME280;63483;47.384;8.860;2023-03-31T08:39:56;93620.88;;;9.69;42.99
74921;BME280;63483;47.384;8.860;2023-03-31T08:42:36;93610.84;;;9.73;42.75
74921;BME280;63483;47.384;8.860;2023-03-31T08:45:26;93636.97;;;9.60;42.57
74921;BME280;63483;47.384;8.860;2023-03-31T08:47:58;93630.53;;;9.69;42.83
74921;BME280;63483;47.384;8.860;2023-03-31T08:50:29;93627.13;;;9.68;43.35
74921;BME280;63483;47.384;8.860;2023-03-31T08:53:06;93614.47;;;9.85;42.43
74921;BME280;63483;47.384;8.860;2023-03-31T08:55:54;93613.88;;;9.90;42.38
74921;BME280;63483;47.384;8.860;2023-03-31T09:01:09;93620.50;;;9.86;42.49
74921;BME280;63483;47.384;8.860;2023-03-31T09:06:40;93600.41;;;10.00;43.16
74921;BME280;63483;47.384;8.860;2023-03-31T09:09:24;93592.13;;;9.83;42.94
74921;BME280;63483;47.384;8.860;2023-03-31T09:11:57;93606.88;;;9.91;43.28
74921;BME280;63483;47.384;8.860;2023-03-31T09:14:37;93599.97;;;9.83;42.65
74921;BME280;63483;47.384;8.860;2023-03-31T09:19:43;93592.78;;;10.12;42.67
74921;BME280;63483;47.384;8.860;2023-03-31T09:22:25;93600.81;;;10.17;42.58
74921;BME280;63483;47.384;8.860;2023-03-31T09:25:20;93586.69;;;10.31;42.06
74921;BME280;63483;47.384;8.860;2023-03-31T09:27:48;93577.03;;;10.38;41.39
74921;BME280;63483;47.384;8.860;2023-03-31T09:32:54;93691.78;;;10.01;40.86
74921;BME280;63483;47.384;8.860;2023-03-31T09:35:25;93826.38;;;9.57;38.58
74921;BME280;63483;47.384;8.860;2023-03-31T09:37:52;93724.94;;;9.32;38.61
74921;BME280;63483;47.384;8.860;2023-03-31T09:40:23;93644.91;;;9.18;36.30
74921;BME280;63483;47.384;8.860;2023-03-31T09:42:57;93634.91;;;9.42;37.26
74921;BME280;63483;47.384;8.860;2023-03-31T09:45:23;93617.03;;;9.52;37.25
74921;BME280;63483;47.384;8.860;2023-03-31T09:47:52;93605.59;;;9.60;36.78
74921;BME280;63483;47.384;8.860;2023-03-31T09:50:19;93593.31;;;9.54;36.75
74921;BME280;63483;47.384;8.860;2023-03-31T09:52:50;93580.03;;;9.48;36.10
74921;BME280;63483;47.384;8.860;2023-03-31T09:58:11;93605.97;;;9.43;36.32
74921;BME280;63483;47.384;8.860;2023-03-31T10:00:40;93581.44;;;9.51;35.30
74921;BME280;63483;47.384;8.860;2023-03-31T10:03:06;93560.94;;;9.48;35.72
74921;BME280;63483;47.384;8.860;2023-03-31T10:05:47;93573.38;;;9.46;36.09
74921;BME280;63483;47.384;8.860;2023-03-31T10:13:14;93581.25;;;9.86;35.48
74921;BME280;63483;47.384;8.860;2023-03-31T10:15:40;93579.03;;;9.69;36.32
74921;BME280;63483;47.384;8.860;2023-03-31T10:18:12;93551.31;;;9.55;35.33
74921;BME280;63483;47.384;8.860;2023-03-31T10:20:43;93558.13;;;9.83;35.42
74921;BME280;63483;47.384;8.860;2023-03-31T10:23:27;93557.34;;;10.09;35.63
74921;BME280;63483;47.384;8.860;2023-03-31T10:25:53;93548.28;;;10.12;35.61
74921;BME280;63483;47.384;8.860;2023-03-31T10:28:19;93559.34;;;10.20;35.73
74921;BME280;63483;47.384;8.860;2023-03-31T10:30:54;93549.31;;;9.97;35.93
74921;BME280;63483;47.384;8.860;2023-03-31T10:33:25;93535.59;;;10.22;35.70
74921;BME280;63483;47.384;8.860;2023-03-31T10:35:59;93530.91;;;10.37;36.52
74921;BME280;63483;47.384;8.860;2023-03-31T10:38:33;93517.38;;;10.54;36.90
74921;BME280;63483;47.384;8.860;2023-03-31T10:41:00;93485.53;;;10.57;35.96
74921;BME280;63483;47.384;8.860;2023-03-31T10:43:42;93475.84;;;10.64;36.65
74921;BME280;63483;47.384;8.860;2023-03-31T10:46:11;93466.28;;;10.90;37.18
74921;BME280;63483;47.384;8.860;2023-03-31T10:48:39;93480.19;;;10.90;37.51
74921;BME280;63483;47.384;8.860;2023-03-31T10:51:25;93482.94;;;11.02;37.35
74921;BME280;63483;47.384;8.860;2023-03-31T10:53:53;93454.56;;;10.93;36.94
74921;BME280;63483;47.384;8.860;2023-03-31T11:10:20;93439.66;;;10.86;38.34
74921;BME280;63483;47.384;8.860;2023-03-31T11:18:50;93497.47;;;10.98;36.92
74921;BME280;63483;47.384;8.860;2023-03-31T11:32:06;93516.69;;;9.66;42.43
74921;BME280;63483;47.384;8.860;2023-03-31T11:43:05;93479.91;;;9.21;42.47
74921;BME280;63483;47.384;8.860;2023-03-31T11:45:40;93462.78;;;8.98;43.73
74921;BME280;63483;47.384;8.860;2023-03-31T11:48:51;93481.50;;;9.36;43.14
74921;BME280;63483;47.384;8.860;2023-03-31T11:51:17;93461.69;;;8.59;43.99
74921;BME280;63483;47.384;8.860;2023-03-31T11:53:45;93455.56;;;8.87;43.25
74921;BME280;63483;47.384;8.860;2023-03-31T11:56:11;93458.38;;;9.06;42.41
74921;BME280;63483;47.384;8.860;2023-03-31T11:58:53;93493.22;;;8.71;44.01
74921;BME280;63483;47.384;8.860;2023-03-31T12:01:46;93475.00;;;8.78;44.64
74921;BME280;63483;47.384;8.860;2023-03-31T12:06:48;93538.78;;;8.69;43.79
74921;BME280;63483;47.384;8.860;2023-03-31T12:09:22;93472.16;;;8.18;45.01
74921;BME280;63483;47.384;8.860;2023-03-31T12:11:52;93497.13;;;8.34;43.87
74921;BME280;63483;47.384;8.860;2023-03-31T12:14:33;93505.03;;;8.12;43.54
74921;BME280;63483;47.384;8.860;2023-03-31T12:17:07;93497.72;;;7.94;41.48
74921;BME280;63483;47.384;8.860;2023-03-31T12:19:47;93467.13;;;7.81;41.32
74921;BME280;63483;47.384;8.860;2023-03-31T12:22:32;93520.53;;;7.64;41.19
74921;BME280;63483;47.384;8.860;2023-03-31T12:25:00;93518.94;;;7.63;43.22
74921;BME280;63483;47.384;8.860;2023-03-31T12:27:38;93550.19;;;7.41;48.14
74921;BME280;63483;47.384;8.860;2023-03-31T12:32:52;93617.78;;;7.28;46.46
74921;BME280;63483;47.384;8.860;2023-03-31T12:35:28;93597.06;;;6.98;47.31
74921;BME280;63483;47.384;8.860;2023-03-31T12:38:03;93609.06;;;6.99;48.77
74921;BME280;63483;47.384;8.860;2023-03-31T12:51:58;93608.53;;;6.29;49.42
74921;BME280;63483;47.384;8.860;2023-03-31T12:54:34;93605.31;;;6.27;46.77
74921;BME280;63483;47.384;8.860;2023-03-31T12:59:33;93599.06;;;6.66;46.68
74921;BME280;63483;47.384;8.860;2023-03-31T13:02:19;93601.56;;;6.74;47.11
74921;BME280;63483;47.384;8.860;2023-03-31T13:04:45;93596.38;;;6.74;45.79
74921;BME280;63483;47.384;8.860;2023-03-31T13:10:00;93577.09;;;6.68;45.76
74921;BME280;63483;47.384;8.860;2023-03-31T13:13:00;93579.88;;;6.67;48.23
74921;BME280;63483;47.384;8.860;2023-03-31T13:15:27;93578.84;;;6.83;47.42
74921;BME280;63483;47.384;8.860;2023-03-31T13:18:02;93564.28;;;6.88;46.07
74921;BME280;63483;47.384;8.860;2023-03-31T13:20:36;93560.09;;;6.87;46.52
74921;BME280;63483;47.384;8.860;2023-03-31T13:23:08;93552.78;;;7.19;50.05
74921;BME280;63483;47.384;8.860;2023-03-31T13:25:47;93547.28;;;7.51;50.10
74921;BME280;63483;47.384;8.860;2023-03-31T13:31:01;93527.44;;;8.00;49.28
74921;BME280;63483;47.384;8.860;2023-03-31T13:33:33;93522.91;;;8.15;48.94
74921;BME280;63483;47.384;8.860;2023-03-31T13:44:06;93525.69;;;8.49;47.75
74921;BME280;63483;47.384;8.860;2023-03-31T13:49:50;93525.56;;;8.28;47.24
74921;BME280;63483;47.384;8.860;2023-03-31T14:00:41;93503.63;;;7.81;44.04
74921;BME280;63483;47.384;8.860;2023-03-31T14:11:30;93518.84;;;8.06;43.36
74921;BME280;63483;47.384;8.860;2023-03-31T14:16:38;93506.94;;;7.97;42.53
74921;BME280;63483;47.384;8.860;2023-03-31T14:19:38;93519.31;;;8.16;42.81
74921;BME280;63483;47.384;8.860;2023-03-31T14:30:41;93513.69;;;8.19;42.78
74921;BME280;63483;47.384;8.860;2023-03-31T14:36:31;93524.78;;;8.35;42.30
74921;BME280;63483;47.384;8.860;2023-03-31T14:39:02;93513.59;;;8.41;41.50
74921;BME280;63483;47.384;8.860;2023-03-31T14:41:28;93501.56;;;8.40;41.82
74921;BME280;63483;47.384;8.860;2023-03-31T14:43:59;93507.63;;;8.54;41.85
74921;BME280;63483;47.384;8.860;2023-03-31T14:46:29;93493.53;;;8.48;40.75
74921;BME280;63483;47.384;8.860;2023-03-31T14:48:57;93482.38;;;8.68;41.87
74921;BME280;63483;47.384;8.860;2023-03-31T14:51:27;93485.91;;;8.40;41.15
74921;BME280;63483;47.384;8.860;2023-03-31T14:53:58;93487.00;;;8.66;41.00
74921;BME280;63483;47.384;8.860;2023-03-31T14:56:31;93466.72;;;8.74;39.99
74921;BME280;63483;47.384;8.860;2023-03-31T14:59:00;93465.13;;;8.73;39.93
74921;BME280;63483;47.384;8.860;2023-03-31T15:01:28;93470.84;;;9.04;40.75
74921;BME280;63483;47.384;8.860;2023-03-31T15:03:59;93456.75;;;9.05;39.53
74921;BME280;63483;47.384;8.860;2023-03-31T15:06:25;93456.94;;;8.90;39.10
74921;BME280;63483;47.384;8.860;2023-03-31T15:08:55;93479.38;;;8.77;38.95
74921;BME280;63483;47.384;8.860;2023-03-31T15:11:21;93454.97;;;8.92;38.15
74921;BME280;63483;47.384;8.860;2023-03-31T15:13:49;93460.16;;;8.78;38.43
74921;BME280;63483;47.384;8.860;2023-03-31T15:16:41;93458.28;;;8.66;37.78
74921;BME280;63483;47.384;8.860;2023-03-31T15:19:14;93468.88;;;8.51;38.04
74921;BME280;63483;47.384;8.860;2023-03-31T15:21:40;93471.09;;;8.47;37.76
74921;BME280;63483;47.384;8.860;2023-03-31T15:24:06;93479.94;;;8.59;38.36
74921;BME280;63483;47.384;8.860;2023-03-31T15:27:00;93531.88;;;8.89;37.83
74921;BME280;63483;47.384;8.860;2023-03-31T15:29:37;93585.72;;;8.55;38.25
74921;BME280;63483;47.384;8.860;2023-03-31T15:32:11;93615.16;;;7.86;42.11
74921;BME280;63483;47.384;8.860;2023-03-31T15:34:38;93580.22;;;7.80;43.36
74921;BME280;63483;47.384;8.860;2023-03-31T15:37:05;93519.56;;;7.65;43.99
74921;BME280;63483;47.384;8.860;2023-03-31T15:39:32;93514.16;;;7.66;44.77
74921;BME280;63483;47.384;8.860;2023-03-31T15:42:02;93509.69;;;7.88;44.69
74921;BME280;63483;47.384;8.860;2023-03-31T15:44:44;93506.44;;;8.15;45.80
74921;BME280;63483;47.384;8.860;2023-03-31T15:47:21;93490.66;;;8.30;45.47
74921;BME280;63483;47.384;8.860;2023-03-31T15:49:58;93495.88;;;8.30;45.32
74921;BME280;63483;47.384;8.860;2023-03-31T15:52:34;93488.72;;;8.45;45.04
74921;BME280;63483;47.384;8.860;2023-03-31T15:55:30;93496.78;;;8.50;45.80
74921;BME280;63483;47.384;8.860;2023-03-31T15:57:59;93565.84;;;8.54;45.54
74921;BME280;63483;47.384;8.860;2023-03-31T16:03:28;93638.53;;;7.57;46.96
74921;BME280;63483;47.384;8.860;2023-03-31T16:06:04;93578.94;;;7.69;46.02